sim
Sign-in with your pilot id or email,
or register
Callsign
Passwort

Schedule Details

Flight Number: DLH1702 (2)
Departure: Munich Airport (EDDM) at 09:05
Arrival: Sofia Airport (LBSF) at 10:55
Route: Lufthansa Passenger Schedule. Enter filed route here before submitting Pirep.

Weather Information
Getting current METAR information for EDDM 190450Z 32001KT CAVOK 04/03 Q1020 NOSIG
Getting current METAR information for LBSF 190500Z 09009KT 9999 FEW080 16/11 Q1023 NOSIG

Schedule Frequency

Route Map